Weather History for Great Bend, KS

Change the Weather History Date:

Saturday, November 24, 2012

  Actual Average Record
Temperature  
Mean Temperature 44 °F -  
Max Temperature 64 °F 51 °F 76 °F (1990)
Min Temperature 24 °F 27 °F 6 °F (1950)
Degree Days  
Heating Degree Days 21    
Moisture  
Dew Point 21 °F    
Average Humidity 45    
Maximum Humidity 74    
Minimum Humidity 21    
Precipitation  
Precipitation 0.00 in - - ()
Sea Level Pressure  
Sea Level Pressure 30.06 in    
Wind  
Wind Speed 12 mph (SSW)    
Max Wind Speed 23 mph    
Max Gust Speed 29 mph    
Visibility 10 miles    
Events      
Averages and records for this station are not official NWS values.
T = Trace of Precipitation, MM = Missing Value Source: NWS Daily Summary

Daily Weather History Graph

Daily Weather History Graph

Search for Another Location

Airport:

Trip Planner

Search our weather history database for the weather conditions in past years. The results will help you decide how hot, cold, wet, or windy it might be!

Date:

Astronomy

Nov. 24, 2012 Rise Set
Actual Time 7:27 AM CST 5:17 PM CST
Civil Twilight 6:58 AM CST 5:46 PM CST
Nautical Twilight 6:25 AM CST 6:18 PM CST
Astronomical Twilight 5:54 AM CST 6:50 PM CST
Moon 3:00 PM CST (11/24) 3:47 AM CST (11/24)
Length of Visible Light 10h 47m
Length of Day
9h 50m
Waxing Gibbous, 87% of the Moon is Illuminated
Nov 24
Waxing Gibbous
Nov 28
Full
Dec 6
Last Quarter
Dec 13
New
Dec 19
First Quarter

Hourly Weather History & Observations

Time (CST) Temp. Windchill Dew Point Humidity Pressure Visibility Wind Dir Wind Speed Gust Speed Precip Events Conditions
12:15 AM 24.8 °F 16.1 °F 15.8 °F 69% 30.36 in 10.0 mi South 8.1 mph - N/A   Clear
12:35 AM 24.8 °F 16.9 °F 17.6 °F 74% 30.36 in 10.0 mi South 6.9 mph - N/A   Clear
12:55 AM 26.6 °F 21.2 °F 17.6 °F 69% 30.35 in 10.0 mi South 4.6 mph - N/A   Clear
1:15 AM 26.6 °F 19.1 °F 17.6 °F 69% 30.34 in 10.0 mi SSW 6.9 mph - N/A   Clear
1:35 AM 26.6 °F 18.2 °F 17.6 °F 69% 30.33 in 10.0 mi South 8.1 mph - N/A   Clear
1:55 AM 26.6 °F 17.5 °F 17.6 °F 69% 30.32 in 10.0 mi South 9.2 mph - N/A   Clear
2:15 AM 26.6 °F 17.5 °F 17.6 °F 69% 30.32 in 10.0 mi South 9.2 mph - N/A   Clear
2:35 AM 26.6 °F 18.2 °F 17.6 °F 69% 30.32 in 10.0 mi South 8.1 mph - N/A   Clear
2:55 AM 26.6 °F 19.1 °F 17.6 °F 69% 30.32 in 10.0 mi South 6.9 mph - N/A   Clear
3:15 AM 26.6 °F 19.1 °F 17.6 °F 69% 30.31 in 10.0 mi South 6.9 mph - N/A   Clear
3:35 AM 26.6 °F 17.5 °F 17.6 °F 69% 30.29 in 10.0 mi South 9.2 mph - N/A   Clear
3:55 AM 26.6 °F 16.8 °F 17.6 °F 69% 30.28 in 10.0 mi South 10.4 mph - N/A   Clear
4:15 AM 28.4 °F 18.0 °F 17.6 °F 64% 30.27 in 10.0 mi South 12.7 mph - N/A   Clear
4:35 AM 28.4 °F 18.5 °F 17.6 °F 64% 30.26 in 10.0 mi South 11.5 mph - N/A   Clear
4:55 AM 28.4 °F 17.5 °F 17.6 °F 64% 30.25 in 10.0 mi South 13.8 mph - N/A   Clear
5:15 AM 30.2 °F 19.3 °F 17.6 °F 60% 30.24 in 10.0 mi South 15.0 mph - N/A   Clear
5:35 AM 28.4 °F 17.5 °F 17.6 °F 64% 30.23 in 10.0 mi South 13.8 mph - N/A   Clear
5:55 AM 30.2 °F 19.3 °F 17.6 °F 60% 30.22 in 10.0 mi South 15.0 mph 19.6 mph N/A   Clear
6:15 AM 30.2 °F 18.9 °F 17.6 °F 60% 30.21 in 10.0 mi South 16.1 mph - N/A   Clear
6:35 AM 30.2 °F 18.9 °F 17.6 °F 60% 30.20 in 10.0 mi South 16.1 mph - N/A   Clear
6:55 AM 32.0 °F 21.6 °F 17.6 °F 55% 30.20 in 10.0 mi South 15.0 mph - N/A   Clear
7:15 AM 32.0 °F 22.1 °F 17.6 °F 55% 30.19 in 10.0 mi South 13.8 mph - N/A   Clear
7:35 AM 32.0 °F 21.6 °F 17.6 °F 55% 30.19 in 10.0 mi South 15.0 mph - N/A   Clear
7:55 AM 33.8 °F 24.3 °F 19.4 °F 56% 30.19 in 10.0 mi South 13.8 mph - N/A   Clear
8:15 AM 33.8 °F 23.9 °F 19.4 °F 56% 30.17 in 10.0 mi South 15.0 mph - N/A   Clear
8:35 AM 35.6 °F 27.1 °F 19.4 °F 52% 30.17 in 10.0 mi South 12.7 mph - N/A   Clear
8:55 AM 37.4 °F 27.8 °F 21.2 °F 52% 30.16 in 10.0 mi South 17.3 mph - N/A   Clear
9:15 AM 37.4 °F 27.2 °F 21.2 °F 52% 30.13 in 10.0 mi South 19.6 mph - N/A   Clear
9:35 AM 39.2 °F 29.6 °F 21.2 °F 49% 30.13 in 10.0 mi SSW 19.6 mph 26.5 mph N/A   Clear
9:55 AM 41.0 °F 32.2 °F 21.2 °F 45% 30.12 in 10.0 mi SSW 18.4 mph 25.3 mph N/A   Clear
10:15 AM 42.8 °F 34.8 °F 21.2 °F 42% 30.11 in 10.0 mi SSW 17.3 mph 25.3 mph N/A   Clear
10:35 AM 44.6 °F 35.9 °F 21.2 °F 39% 30.10 in 10.0 mi South 23.0 mph - N/A   Clear
10:55 AM 46.4 °F 38.7 °F 21.2 °F 37% 30.09 in 10.0 mi SSW 20.7 mph 25.3 mph N/A   Unknown
11:15 AM 48.2 °F - 24.8 °F 40% 30.07 in 10.0 mi SSW 17.3 mph 23.0 mph N/A   Clear
11:35 AM 51.8 °F - 21.2 °F 30% 30.04 in 10.0 mi SSW 18.4 mph 28.8 mph N/A   Clear
11:55 AM 53.6 °F - 21.2 °F 28% 30.03 in 10.0 mi SSW 21.9 mph 25.3 mph N/A   Clear
12:15 PM 55.4 °F - 23.0 °F 29% 30.03 in 10.0 mi SW 19.6 mph - N/A   Clear
12:35 PM 55.4 °F - 23.0 °F 29% 30.02 in 10.0 mi SSW 18.4 mph 23.0 mph N/A   Clear
12:55 PM 57.2 °F - 23.0 °F 27% 30.00 in 10.0 mi SSW 18.4 mph 24.2 mph N/A   Clear
1:15 PM 59.0 °F - 23.0 °F 25% 29.98 in 10.0 mi SSW 17.3 mph 21.9 mph N/A   Clear
1:35 PM 60.8 °F - 23.0 °F 23% 29.97 in 10.0 mi SSW 16.1 mph 24.2 mph N/A   Clear
1:55 PM 60.8 °F - 23.0 °F 23% 29.96 in 10.0 mi SSW 18.4 mph 26.5 mph N/A   Clear
2:15 PM 62.6 °F - 23.0 °F 22% 29.94 in 10.0 mi SSW 16.1 mph - N/A   Clear
2:35 PM 62.6 °F - 23.0 °F 22% 29.93 in 10.0 mi SW 18.4 mph - N/A   Clear
2:55 PM 64.4 °F - 23.0 °F 21% 29.92 in 10.0 mi SSW 20.7 mph - N/A   Clear
3:15 PM 64.4 °F - 23.0 °F 21% 29.91 in 10.0 mi SSW 16.1 mph 21.9 mph N/A   Clear
3:35 PM 64.4 °F - 23.0 °F 21% 29.90 in 10.0 mi SSW 19.6 mph 25.3 mph N/A   Clear
3:55 PM 64.4 °F - 23.0 °F 21% 29.90 in 10.0 mi SSW 12.7 mph - N/A   Clear
4:15 PM 64.4 °F - 24.8 °F 22% 29.89 in 10.0 mi SSW 13.8 mph 18.4 mph N/A   Clear
4:35 PM 62.6 °F - 24.8 °F 24% 29.88 in 10.0 mi South 15.0 mph - N/A   Clear
4:55 PM 60.8 °F - 24.8 °F 25% 29.87 in 10.0 mi South 12.7 mph - N/A   Clear
5:15 PM 59.0 °F - 23.0 °F 25% 29.88 in 10.0 mi SSW 11.5 mph - N/A   Clear
5:35 PM 53.6 °F - 21.2 °F 28% 29.88 in 10.0 mi SSW 9.2 mph - N/A   Clear
5:55 PM 53.6 °F - 23.0 °F 30% 29.88 in 10.0 mi SSW 9.2 mph - N/A   Clear
6:15 PM 48.2 °F - 23.0 °F 37% 29.87 in 10.0 mi South 11.5 mph - N/A   Clear
6:35 PM 50.0 °F - 24.8 °F 37% 29.87 in 10.0 mi SSW 10.4 mph - N/A   Clear
6:55 PM 46.4 °F 41.1 °F 23.0 °F 40% 29.86 in 10.0 mi SSW 11.5 mph - N/A   Clear
7:15 PM 46.4 °F 42.4 °F 23.0 °F 40% 29.87 in 10.0 mi SSW 8.1 mph - N/A   Clear
7:35 PM 46.4 °F 41.5 °F 23.0 °F 40% 29.86 in 10.0 mi SSW 10.4 mph - N/A   Clear
7:55 PM 44.6 °F 39.2 °F 23.0 °F 43% 29.87 in 10.0 mi SSW 10.4 mph - N/A   Clear
8:15 PM 46.4 °F 42.4 °F 23.0 °F 40% 29.87 in 10.0 mi SSW 8.1 mph - N/A   Clear
8:35 PM 44.6 °F 38.8 °F 23.0 °F 43% 29.86 in 10.0 mi SSW 11.5 mph - N/A   Clear
8:55 PM 48.2 °F - 24.8 °F 40% 29.86 in 10.0 mi SSW 11.5 mph - N/A   Clear
9:15 PM 48.2 °F - 23.0 °F 37% 29.85 in 10.0 mi SSW 15.0 mph - N/A   Clear
9:35 PM 46.4 °F 41.5 °F 23.0 °F 40% 29.86 in 10.0 mi SSW 10.4 mph - N/A   Clear
9:55 PM 44.6 °F 39.2 °F 21.2 °F 39% 29.86 in 10.0 mi SW 10.4 mph - N/A   Clear
10:15 PM 44.6 °F 39.7 °F 21.2 °F 39% 29.87 in 10.0 mi SW 9.2 mph - N/A   Clear
10:35 PM 44.6 °F 39.7 °F 23.0 °F 43% 29.87 in 10.0 mi SW 9.2 mph - N/A   Clear
10:55 PM 44.6 °F 38.8 °F 21.2 °F 39% 29.86 in 10.0 mi SW 11.5 mph - N/A   Clear
11:15 PM 44.6 °F 38.8 °F 23.0 °F 43% 29.86 in 10.0 mi SW 11.5 mph - N/A   Clear
11:35 PM 44.6 °F 39.7 °F 23.0 °F 43% 29.86 in 10.0 mi WSW 9.2 mph - N/A   Clear
11:55 PM 42.8 °F 37.0 °F 23.0 °F 46% 29.86 in 10.0 mi SW 10.4 mph - N/A   Clear